createdAt,value
2018-12-01T00:00:33.425Z,954.59
2018-12-01T00:04:03.646Z,954.5
2018-12-01T00:07:33.746Z,954.39
2018-12-01T00:11:04.156Z,954
2018-12-01T00:14:34.256Z,953.98
2018-12-01T00:18:04.625Z,953.96
2018-12-01T00:21:34.746Z,954.14
2018-12-01T00:25:05.935Z,954.25
2018-12-01T00:28:36.218Z,953.85
2018-12-01T00:32:06.250Z,953.54
2018-12-01T00:35:36.366Z,953.59
2018-12-01T00:39:06.649Z,953.34
2018-12-01T00:42:37.237Z,953.38
2018-12-01T00:46:07.316Z,953.59
2018-12-01T00:49:37.328Z,953.38
2018-12-01T00:53:07.436Z,953.01
2018-12-01T00:56:37.576Z,953.18
2018-12-01T01:00:15.977Z,953.39
2018-12-01T01:03:46.116Z,953.53
2018-12-01T01:07:16.147Z,952.49
2018-12-01T01:10:46.307Z,952.86
2018-12-01T01:14:16.417Z,952.91
2018-12-01T01:17:46.526Z,953.18
2018-12-01T01:21:16.737Z,953.44
2018-12-01T01:24:46.957Z,953.3
2018-12-01T01:28:17.087Z,953.79
2018-12-01T01:31:47.117Z,953.76
2018-12-01T01:35:17.128Z,953.89
2018-12-01T01:38:47.187Z,953.85
2018-12-01T01:42:17.218Z,954.08
2018-12-01T01:45:47.412Z,953.99
2018-12-01T01:49:17.508Z,953.91
2018-12-01T01:52:47.898Z,953.95
2018-12-01T01:56:17.888Z,953.92
2018-12-01T01:59:47.998Z,954
2018-12-01T02:00:17.798Z,954.03
2018-12-01T02:03:47.848Z,953.85
2018-12-01T02:07:17.959Z,954.1
2018-12-01T02:10:48.088Z,954
2018-12-01T02:14:18.499Z,953.64
2018-12-01T02:17:48.720Z,953.78
2018-12-01T02:21:18.819Z,953.66
2018-12-01T02:24:48.809Z,953.56
2018-12-01T02:28:19.059Z,953.41
2018-12-01T02:31:49.090Z,953.32
2018-12-01T02:35:27.320Z,952.98
2018-12-01T02:38:57.380Z,952.64
2018-12-01T02:42:27.338Z,952.69
2018-12-01T02:48:09.312Z,952.58
2018-12-01T02:51:39.390Z,952.31
2018-12-01T02:55:09.620Z,952.42
2018-12-01T02:58:39.801Z,952.73
2018-12-01T03:02:09.976Z,952.69
2018-12-01T03:05:40.050Z,953.02
2018-12-01T03:09:10.150Z,953.42
2018-12-01T03:12:40.260Z,953.67
2018-12-01T03:16:10.260Z,953.45
2018-12-01T03:19:40.340Z,953.32
2018-12-01T03:23:10.410Z,953.21
2018-12-01T03:26:40.490Z,953.15
2018-12-01T03:30:10.714Z,953.01
2018-12-01T03:33:40.872Z,953.29
2018-12-01T03:37:10.885Z,953.51
2018-12-01T03:40:48.081Z,953.78
2018-12-01T03:44:18.161Z,953.91
2018-12-01T03:47:48.365Z,954.04
2018-12-01T03:51:18.372Z,954.09
2018-12-01T03:54:48.367Z,954.14
2018-12-01T03:58:18.472Z,954.08
2018-12-01T04:00:26.025Z,954.06
2018-12-01T04:03:56.051Z,954.11
2018-12-01T04:07:28.061Z,954.28
2018-12-01T04:10:58.191Z,954.61
2018-12-01T04:14:28.221Z,954.62
2018-12-01T04:17:58.271Z,954.34
2018-12-01T04:21:28.271Z,953.74
2018-12-01T04:24:58.312Z,953.59
2018-12-01T04:28:28.382Z,953.34
2018-12-01T04:31:58.552Z,953.17
2018-12-01T04:35:28.521Z,953.42
2018-12-01T04:38:58.631Z,953.65
2018-12-01T04:42:28.605Z,953.86
2018-12-01T04:45:58.672Z,953.77
2018-12-01T04:49:28.982Z,953.94
2018-12-01T04:52:58.992Z,954.02
2018-12-01T04:56:29.002Z,953.94
2018-12-01T04:59:59.134Z,953.81
2018-12-01T05:03:29.182Z,953.46
2018-12-01T05:06:59.262Z,953.4
2018-12-01T05:10:29.222Z,953.2
2018-12-01T05:13:59.263Z,953.22
2018-12-01T05:17:29.422Z,953.14
2018-12-01T05:20:59.624Z,953.21
2018-12-01T05:24:29.564Z,953.47
2018-12-01T05:27:59.638Z,953.69
2018-12-01T05:31:29.653Z,953.8
2018-12-01T05:34:59.723Z,954.13
2018-12-01T05:38:29.771Z,954.58
2018-12-01T05:41:59.803Z,954.94
2018-12-01T05:45:29.862Z,955.2
2018-12-01T05:48:59.882Z,955.69
2018-12-01T05:52:30.033Z,956.16
2018-12-01T05:56:00.123Z,956.66
2018-12-01T05:59:30.006Z,957.19
2018-12-01T06:00:16.783Z,957.32
2018-12-01T06:03:46.883Z,957.58
2018-12-01T06:07:16.915Z,957.79
2018-12-01T06:10:47.002Z,958.14
2018-12-01T06:14:17.142Z,958.49
2018-12-01T06:17:47.243Z,959.23
2018-12-01T06:21:17.340Z,959.68
2018-12-01T06:24:47.368Z,960.06
2018-12-01T06:28:17.401Z,960.81
2018-12-01T06:31:47.524Z,961.62
2018-12-01T06:35:17.619Z,962.19
2018-12-01T06:38:47.705Z,962.88
2018-12-01T06:42:17.766Z,963.74
2018-12-01T06:45:48.061Z,963.87
2018-12-01T06:49:18.152Z,964.22
2018-12-01T06:52:49.265Z,964.88
2018-12-01T06:56:19.390Z,965.42
2018-12-01T06:59:49.467Z,966.32
2018-12-01T07:03:19.551Z,967.07
2018-12-01T07:06:49.568Z,967.1
2018-12-01T07:10:20.466Z,967.42
2018-12-01T07:13:50.512Z,967.46
2018-12-01T07:17:20.631Z,967.52
2018-12-01T07:20:50.717Z,967.41
2018-12-01T07:24:20.759Z,967.7
2018-12-01T07:27:50.832Z,967.28
2018-12-01T07:31:20.845Z,967.24
2018-12-01T07:34:50.888Z,967.2
2018-12-01T07:38:20.908Z,967.25
2018-12-01T07:41:51.070Z,967.03
2018-12-01T07:45:21.151Z,967.68
2018-12-01T07:48:51.274Z,968.33
2018-12-01T07:52:21.354Z,969.11
2018-12-01T07:55:51.911Z,969.55
2018-12-01T07:59:21.916Z,970.03
2018-12-01T08:00:16.215Z,970.09
2018-12-01T08:03:46.365Z,970.06
2018-12-01T08:07:16.333Z,971.01
2018-12-01T08:10:46.441Z,971.63
2018-12-01T08:14:16.610Z,972.19
2018-12-01T08:17:46.650Z,971.66
2018-12-01T08:21:16.929Z,971.54
2018-12-01T08:24:47.059Z,971.93
2018-12-01T08:28:20.055Z,972.46
2018-12-01T08:31:50.158Z,973.53
2018-12-01T08:35:20.455Z,973.19
2018-12-01T08:38:50.497Z,972.46
2018-12-01T08:42:20.477Z,972.84
2018-12-01T08:45:50.506Z,972.34
2018-12-01T08:49:20.561Z,972.72
2018-12-01T08:52:51.285Z,973.01
2018-12-01T08:56:21.542Z,973.13
2018-12-01T08:59:51.690Z,973.2
2018-12-01T09:03:22.188Z,973.58
2018-12-01T09:06:52.290Z,974.11
2018-12-01T09:10:22.287Z,974.38
2018-12-01T09:13:52.685Z,974.47
2018-12-01T09:17:22.775Z,974.82
2018-12-01T09:20:52.806Z,974.66
2018-12-01T09:24:22.830Z,975.39
2018-12-01T09:27:52.935Z,975.23
2018-12-01T09:31:23.003Z,975.28
2018-12-01T09:34:53.022Z,975.91
2018-12-01T09:38:24.155Z,976.57
2018-12-01T09:41:54.267Z,977.1
2018-12-01T09:45:24.763Z,977.64
2018-12-01T09:48:54.784Z,977.27
2018-12-01T09:52:24.825Z,978.18
2018-12-01T09:55:54.965Z,979.16
2018-12-01T09:59:25.185Z,978.81
2018-12-01T10:00:19.756Z,979.01
2018-12-01T10:03:49.856Z,980.12
2018-12-01T10:07:19.780Z,980.69
2018-12-01T10:10:49.952Z,981.09
2018-12-01T10:14:19.946Z,981.79
2018-12-01T10:17:50.106Z,982.26
2018-12-01T10:21:20.036Z,983.38
2018-12-01T10:24:50.056Z,984.76
2018-12-01T10:28:20.115Z,985.01
2018-12-01T10:31:50.356Z,986.78
2018-12-01T10:35:21.845Z,988.13
2018-12-01T10:38:51.908Z,989.06
2018-12-01T10:42:21.997Z,990.42
2018-12-01T10:45:52.031Z,991.63
2018-12-01T10:49:22.147Z,993.47
2018-12-01T10:52:53.208Z,993.87
2018-12-01T10:56:23.430Z,993.46
2018-12-01T10:59:53.857Z,994.49
2018-12-01T11:03:56.266Z,995.76
2018-12-01T11:07:26.318Z,996.6
2018-12-01T11:10:56.401Z,997.21
2018-12-01T11:14:26.448Z,997.52
2018-12-01T11:17:56.649Z,997.3
2018-12-01T11:21:26.959Z,997.12
2018-12-01T11:24:57.049Z,997.03
2018-12-01T11:28:27.239Z,998.47
2018-12-01T11:31:57.540Z,999.11
2018-12-01T11:35:28.035Z,998.01
2018-12-01T11:38:58.120Z,999.23
2018-12-01T11:42:28.171Z,998.64
2018-12-01T11:45:58.594Z,998.44
2018-12-01T11:49:28.741Z,995.93
2018-12-01T11:52:58.876Z,997.17
2018-12-01T11:56:29.033Z,997.93
2018-12-01T11:59:59.163Z,998.64
2018-12-01T12:00:17.433Z,998.69
2018-12-01T12:03:47.594Z,999.57
2018-12-01T12:08:22.867Z,999.06
2018-12-01T12:11:52.994Z,997.56
2018-12-01T12:15:23.714Z,997.13
2018-12-01T12:18:53.856Z,996.61
2018-12-01T12:22:23.877Z,995.81
2018-12-01T12:25:54.066Z,997.05
2018-12-01T12:29:24.087Z,998.46
2018-12-01T12:32:54.093Z,996.89
2018-12-01T12:36:24.092Z,997.07
2018-12-01T12:39:54.108Z,997.35
2018-12-01T12:43:24.068Z,996.84
2018-12-01T12:46:54.165Z,997.78
2018-12-01T12:50:24.229Z,998.09
2018-12-01T12:53:54.389Z,998.64
2018-12-01T12:57:24.429Z,998.48
2018-12-01T13:00:54.580Z,998.45
2018-12-01T13:04:24.631Z,996.84
2018-12-01T13:07:54.896Z,997.72
2018-12-01T13:11:24.981Z,997.4
2018-12-01T13:14:55.061Z,996.57
2018-12-01T13:18:25.171Z,994.6
2018-12-01T13:21:55.227Z,994.67
2018-12-01T13:25:25.272Z,994.3
2018-12-01T13:28:55.352Z,994.02
2018-12-01T13:32:25.473Z,994.5
2018-12-01T13:35:56.124Z,994.29
2018-12-01T13:39:26.150Z,993.61
2018-12-01T13:42:56.304Z,992.75
2018-12-01T13:46:26.334Z,992.6
2018-12-01T13:49:56.325Z,992.23
2018-12-01T13:53:26.345Z,991.41
2018-12-01T13:56:56.536Z,991.46
2018-12-01T14:00:18.750Z,991.08
2018-12-01T14:03:49.007Z,990.65
2018-12-01T14:07:19.044Z,990.69
2018-12-01T14:10:49.773Z,990.47
2018-12-01T14:14:19.853Z,989.8
2018-12-01T14:17:50.078Z,988.54
2018-12-01T14:21:20.128Z,987.37
2018-12-01T14:24:50.410Z,986.33
2018-12-01T14:28:20.423Z,984.76
2018-12-01T14:31:50.529Z,983.78
2018-12-01T14:35:23.578Z,982.54
2018-12-01T14:38:53.645Z,981.56
2018-12-01T14:42:23.655Z,980.87
2018-12-01T14:45:53.740Z,980.06
2018-12-01T14:49:23.810Z,979.43
2018-12-01T14:52:54.915Z,978.63
2018-12-01T14:56:25.070Z,977.69
2018-12-01T14:59:55.120Z,977.22
2018-12-01T15:03:25.966Z,977.04
2018-12-01T15:06:56.300Z,976.59
2018-12-01T15:10:26.350Z,976.56
2018-12-01T15:13:56.460Z,976.45
2018-12-01T15:17:26.520Z,976.58
2018-12-01T15:20:56.610Z,976.48
2018-12-01T15:24:26.682Z,976.52
2018-12-01T15:27:56.984Z,976.58
2018-12-01T15:31:26.990Z,976.39
2018-12-01T15:34:57.210Z,976.31
2018-12-01T15:38:27.282Z,976.53
2018-12-01T15:41:57.420Z,976.09
2018-12-01T15:45:27.532Z,976.08
2018-12-01T15:48:57.651Z,975.93
2018-12-01T15:52:27.669Z,976.16
2018-12-01T15:55:57.780Z,976.18
2018-12-01T15:59:27.771Z,976.32
2018-12-01T16:00:17.901Z,976.28
2018-12-01T16:03:48.091Z,976.51
2018-12-01T16:07:18.406Z,976.65
2018-12-01T16:10:48.491Z,976.74
2018-12-01T16:14:18.591Z,976.7
2018-12-01T16:17:49.151Z,976.51
2018-12-01T16:21:19.166Z,976.57
2018-12-01T16:24:49.312Z,976.23
2018-12-01T16:28:19.526Z,976.35
2018-12-01T16:31:49.592Z,976.37
2018-12-01T16:35:19.681Z,976.36
2018-12-01T16:38:49.917Z,976.2
2018-12-01T16:42:20.253Z,976.15
2018-12-01T16:45:50.983Z,976.25
2018-12-01T16:49:21.102Z,976.41
2018-12-01T16:52:51.172Z,976.39
2018-12-01T16:56:21.352Z,976.36
2018-12-01T16:59:51.412Z,976.36
2018-12-01T17:03:21.482Z,976.36
2018-12-01T17:06:51.567Z,976.38
2018-12-01T17:10:21.984Z,976.45
2018-12-01T17:13:52.203Z,976.68
2018-12-01T17:17:22.211Z,976.88
2018-12-01T17:20:52.263Z,976.88
2018-12-01T17:24:22.383Z,976.7
2018-12-01T17:27:53.773Z,976.46
2018-12-01T17:31:23.843Z,976.57
2018-12-01T17:34:53.957Z,976.45
2018-12-01T17:38:24.138Z,976.48
2018-12-01T17:41:56.116Z,976.72
2018-12-01T17:45:26.177Z,977.05
2018-12-01T17:48:56.368Z,977.22
2018-12-01T17:52:26.534Z,977.3
2018-12-01T17:55:56.654Z,977.31
2018-12-01T17:59:26.695Z,977.22
2018-12-01T18:00:18.326Z,977.25
2018-12-01T18:03:48.360Z,977.14
2018-12-01T18:07:18.384Z,977.27
2018-12-01T18:10:49.975Z,977.03
2018-12-01T18:14:20.045Z,977.1
2018-12-01T18:17:50.115Z,977.07
2018-12-01T18:21:20.145Z,977.23
2018-12-01T18:24:50.171Z,977.41
2018-12-01T18:28:23.168Z,977.39
2018-12-01T18:31:53.216Z,977.37
2018-12-01T18:35:23.285Z,977.39
2018-12-01T18:38:53.456Z,977.13
2018-12-01T18:42:23.546Z,977.21
2018-12-01T18:45:56.649Z,977.68
2018-12-01T18:49:26.716Z,977.52
2018-12-01T18:52:59.496Z,977.55
2018-12-01T18:56:29.516Z,977.62
2018-12-01T18:59:59.579Z,977.65
2018-12-01T19:03:31.386Z,977.66
2018-12-01T19:07:01.406Z,977.98
2018-12-01T19:10:31.572Z,977.97
2018-12-01T19:14:01.908Z,977.89
2018-12-01T19:17:31.937Z,978.04
2018-12-01T19:21:02.067Z,978.07
2018-12-01T19:24:32.188Z,978.22
2018-12-01T19:28:02.277Z,978.69
2018-12-01T19:31:32.377Z,978.8
2018-12-01T19:35:03.148Z,978.91
2018-12-01T19:38:33.159Z,978.95
2018-12-01T19:42:03.421Z,978.96
2018-12-01T19:45:33.537Z,978.75
2018-12-01T19:49:04.168Z,978.49
2018-12-01T19:52:34.168Z,978.55
2018-12-01T19:56:04.307Z,978.48
2018-12-01T19:59:34.508Z,978.48
2018-12-01T20:00:19.038Z,978.54
2018-12-01T20:03:49.219Z,978.29
2018-12-01T20:07:19.504Z,978.25
2018-12-01T20:11:05.961Z,978.08
2018-12-01T20:14:36.309Z,978.25
2018-12-01T20:18:12.169Z,978.23
2018-12-01T20:21:42.269Z,978.53
2018-12-01T20:25:13.049Z,978.52
2018-12-01T20:28:43.349Z,978.62
2018-12-01T20:32:13.452Z,978.76
2018-12-01T20:35:53.660Z,978.7
2018-12-01T20:39:34.732Z,978.56
2018-12-01T20:43:04.939Z,978.5
2018-12-01T20:46:35.032Z,978.34
2018-12-01T20:50:09.980Z,978.41
2018-12-01T20:53:40.078Z,978.6
2018-12-01T20:57:12.979Z,978.3
2018-12-01T21:00:43.170Z,978.7
2018-12-01T21:04:13.110Z,978.68
2018-12-01T21:07:43.099Z,978.59
2018-12-01T21:11:13.941Z,978.53
2018-12-01T21:14:44.195Z,978.79
2018-12-01T21:18:14.291Z,978.76
2018-12-01T21:21:44.341Z,978.7
2018-12-01T21:25:16.008Z,979.08
2018-12-01T21:28:46.071Z,979.28
2018-12-01T21:32:16.151Z,979.48
2018-12-01T21:35:46.163Z,979.56
2018-12-01T21:39:16.231Z,979.8
2018-12-01T21:42:46.402Z,979.81
2018-12-01T21:46:16.472Z,979.85
2018-12-01T21:49:46.642Z,979.75
2018-12-01T21:53:20.572Z,979.72
2018-12-01T21:56:50.582Z,979.67
2018-12-01T22:00:18.652Z,979.56
2018-12-01T22:03:48.812Z,979.49
2018-12-01T22:07:18.873Z,979.33
2018-12-01T22:10:51.592Z,979.35
2018-12-01T22:14:21.597Z,978.93
2018-12-01T22:17:51.843Z,979.13
2018-12-01T22:21:21.813Z,979.31
2018-12-01T22:24:51.872Z,979.3
2018-12-01T22:28:21.922Z,979.39
2018-12-01T22:31:52.043Z,979.35
2018-12-01T22:35:23.373Z,979.15
2018-12-01T22:38:53.473Z,979.41
2018-12-01T22:42:23.533Z,979.61
2018-12-01T22:45:53.523Z,979.62
2018-12-01T22:49:23.534Z,979.44
2018-12-01T22:52:54.068Z,979.47
2018-12-01T22:56:28.770Z,979.29
2018-12-01T22:59:59.124Z,979.31
2018-12-01T23:03:30.884Z,979.16
2018-12-01T23:07:00.908Z,979.16
2018-12-01T23:10:30.998Z,979.43
2018-12-01T23:14:01.184Z,979.64
2018-12-01T23:17:31.345Z,979.75
2018-12-01T23:21:01.627Z,979.81
2018-12-01T23:24:31.690Z,979.87
2018-12-01T23:28:01.825Z,979.71
2018-12-01T23:31:32.095Z,979.52
2018-12-01T23:35:02.211Z,979.21
2018-12-01T23:38:32.265Z,979.31
2018-12-01T23:42:02.385Z,979.68
2018-12-01T23:45:32.446Z,979.45
2018-12-01T23:49:02.526Z,979.43
2018-12-01T23:52:32.538Z,979.27
2018-12-01T23:56:02.666Z,979.07
2018-12-01T23:59:32.686Z,979.14
